sensor_id;sensor_type;location;lat;lon;timestamp;pressure;altitude;pressure_sealevel;temperature;humidity
11830;BME280;5972;42.134;24.718;2022-07-23T00:01:11;99686.56;;;23.89;100.00
11830;BME280;5972;42.134;24.718;2022-07-23T00:03:37;99693.59;;;24.10;100.00
11830;BME280;5972;42.134;24.718;2022-07-23T00:06:05;99689.19;;;23.96;100.00
11830;BME280;5972;42.134;24.718;2022-07-23T00:08:32;99685.91;;;24.01;100.00
11830;BME280;5972;42.134;24.718;2022-07-23T00:10:58;99699.28;;;24.02;100.00
11830;BME280;5972;42.134;24.718;2022-07-23T00:13:26;99696.44;;;23.90;100.00
11830;BME280;5972;42.134;24.718;2022-07-23T00:15:54;99700.31;;;23.92;100.00
11830;BME280;5972;42.134;24.718;2022-07-23T00:18:21;99697.22;;;23.90;100.00
11830;BME280;5972;42.134;24.718;2022-07-23T00:20:48;99693.22;;;24.08;100.00
11830;BME280;5972;42.134;24.718;2022-07-23T00:23:16;99689.19;;;23.96;100.00
11830;BME280;5972;42.134;24.718;2022-07-23T00:25:43;99686.94;;;24.07;100.00
11830;BME280;5972;42.134;24.718;2022-07-23T00:28:11;99701.09;;;23.93;100.00
11830;BME280;5972;42.134;24.718;2022-07-23T00:30:38;99694.06;;;23.72;100.00
11830;BME280;5972;42.134;24.718;2022-07-23T00:33:07;99695.66;;;23.89;100.00
11830;BME280;5972;42.134;24.718;2022-07-23T00:35:36;99698.06;;;23.87;100.00
11830;BME280;5972;42.134;24.718;2022-07-23T00:38:06;99695.94;;;23.75;100.00
11830;BME280;5972;42.134;24.718;2022-07-23T00:40:34;99698.75;;;23.91;100.00
11830;BME280;5972;42.134;24.718;2022-07-23T00:43:01;99691.16;;;23.95;100.00
11830;BME280;5972;42.134;24.718;2022-07-23T00:45:28;99697.91;;;23.58;100.00
11830;BME280;5972;42.134;24.718;2022-07-23T00:47:55;99699.44;;;23.20;100.00
11830;BME280;5972;42.134;24.718;2022-07-23T00:50:24;99694.91;;;23.30;100.00
11830;BME280;5972;42.134;24.718;2022-07-23T00:52:52;99705.56;;;23.51;100.00
11830;BME280;5972;42.134;24.718;2022-07-23T00:55:19;99696.34;;;23.38;100.00
11830;BME280;5972;42.134;24.718;2022-07-23T00:57:46;99708.28;;;23.31;100.00
11830;BME280;5972;42.134;24.718;2022-07-23T01:00:15;99693.78;;;23.27;100.00
11830;BME280;5972;42.134;24.718;2022-07-23T01:02:42;99702.44;;;23.29;100.00
11830;BME280;5972;42.134;24.718;2022-07-23T01:05:09;99709.16;;;23.48;100.00
11830;BME280;5972;42.134;24.718;2022-07-23T01:07:38;99697.94;;;23.35;100.00
11830;BME280;5972;42.134;24.718;2022-07-23T01:10:05;99702.50;;;23.45;100.00
11830;BME280;5972;42.134;24.718;2022-07-23T01:12:54;99703.13;;;23.53;100.00
11830;BME280;5972;42.134;24.718;2022-07-23T01:15:21;99702.00;;;23.31;100.00
11830;BME280;5972;42.134;24.718;2022-07-23T01:17:48;99696.56;;;23.27;100.00
11830;BME280;5972;42.134;24.718;2022-07-23T01:20:15;99701.38;;;23.23;100.00
11830;BME280;5972;42.134;24.718;2022-07-23T01:22:44;99699.41;;;23.24;100.00
11830;BME280;5972;42.134;24.718;2022-07-23T01:25:10;99700.72;;;23.35;100.00
11830;BME280;5972;42.134;24.718;2022-07-23T01:27:37;99697.75;;;23.26;100.00
11830;BME280;5972;42.134;24.718;2022-07-23T01:30:05;99696.97;;;23.26;100.00
11830;BME280;5972;42.134;24.718;2022-07-23T01:32:32;99703.84;;;23.17;100.00
11830;BME280;5972;42.134;24.718;2022-07-23T01:34:59;99697.66;;;23.30;100.00
11830;BME280;5972;42.134;24.718;2022-07-23T01:37:26;99699.31;;;23.27;100.00
11830;BME280;5972;42.134;24.718;2022-07-23T01:39:54;99693.50;;;23.21;100.00
11830;BME280;5972;42.134;24.718;2022-07-23T01:42:21;99699.59;;;23.13;100.00
11830;BME280;5972;42.134;24.718;2022-07-23T01:44:48;99703.06;;;23.17;100.00
11830;BME280;5972;42.134;24.718;2022-07-23T01:47:16;99684.28;;;23.08;100.00
11830;BME280;5972;42.134;24.718;2022-07-23T01:49:43;99705.66;;;23.24;100.00
11830;BME280;5972;42.134;24.718;2022-07-23T01:52:10;99699.28;;;23.07;100.00
11830;BME280;5972;42.134;24.718;2022-07-23T01:54:38;99689.59;;;23.19;100.00
11830;BME280;5972;42.134;24.718;2022-07-23T01:57:07;99695.63;;;23.34;100.00
11830;BME280;5972;42.134;24.718;2022-07-23T01:59:34;99695.06;;;23.42;100.00
11830;BME280;5972;42.134;24.718;2022-07-23T02:02:01;99703.31;;;23.46;100.00
11830;BME280;5972;42.134;24.718;2022-07-23T02:04:29;99699.38;;;23.43;100.00
11830;BME280;5972;42.134;24.718;2022-07-23T02:06:56;99680.41;;;23.06;100.00
11830;BME280;5972;42.134;24.718;2022-07-23T02:09:22;99700.81;;;23.12;100.00
11830;BME280;5972;42.134;24.718;2022-07-23T02:11:49;99700.72;;;23.15;100.00
11830;BME280;5972;42.134;24.718;2022-07-23T02:14:18;99702.41;;;23.09;100.00
11830;BME280;5972;42.134;24.718;2022-07-23T02:16:44;99707.44;;;23.14;100.00
11830;BME280;5972;42.134;24.718;2022-07-23T02:19:11;99710.28;;;23.31;100.00
11830;BME280;5972;42.134;24.718;2022-07-23T02:21:38;99710.16;;;23.38;100.00
11830;BME280;5972;42.134;24.718;2022-07-23T02:24:06;99702.72;;;23.35;100.00
11830;BME280;5972;42.134;24.718;2022-07-23T02:26:33;99701.00;;;23.41;100.00
11830;BME280;5972;42.134;24.718;2022-07-23T02:29:00;99699.31;;;23.47;100.00
11830;BME280;5972;42.134;24.718;2022-07-23T02:31:29;99702.38;;;23.52;99.90
11830;BME280;5972;42.134;24.718;2022-07-23T02:33:56;99706.81;;;23.46;99.79
11830;BME280;5972;42.134;24.718;2022-07-23T02:36:23;99686.84;;;23.19;100.00
11830;BME280;5972;42.134;24.718;2022-07-23T02:38:50;99704.28;;;23.16;100.00
11830;BME280;5972;42.134;24.718;2022-07-23T02:41:17;99699.53;;;23.16;100.00
11830;BME280;5972;42.134;24.718;2022-07-23T02:43:44;99699.41;;;23.24;100.00
11830;BME280;5972;42.134;24.718;2022-07-23T02:46:10;99693.44;;;23.25;100.00
11830;BME280;5972;42.134;24.718;2022-07-23T02:48:39;99707.66;;;23.43;99.01
11830;BME280;5972;42.134;24.718;2022-07-23T02:51:06;99709.16;;;23.48;98.80
11830;BME280;5972;42.134;24.718;2022-07-23T02:53:32;99700.09;;;23.47;98.80
11830;BME280;5972;42.134;24.718;2022-07-23T02:55:59;99706.06;;;23.46;98.48
11830;BME280;5972;42.134;24.718;2022-07-23T02:58:26;99711.00;;;23.15;100.00
11830;BME280;5972;42.134;24.718;2022-07-23T03:00:53;99709.41;;;22.94;100.00
11830;BME280;5972;42.134;24.718;2022-07-23T03:03:20;99716.50;;;23.15;100.00
11830;BME280;5972;42.134;24.718;2022-07-23T03:05:48;99716.38;;;23.22;100.00
11830;BME280;5972;42.134;24.718;2022-07-23T03:08:15;99714.53;;;23.15;100.00
11830;BME280;5972;42.134;24.718;2022-07-23T03:10:42;99721.81;;;23.26;100.00
11830;BME280;5972;42.134;24.718;2022-07-23T03:13:09;99717.38;;;23.32;99.64
11830;BME280;5972;42.134;24.718;2022-07-23T03:15:36;99717.28;;;23.35;98.61
11830;BME280;5972;42.134;24.718;2022-07-23T03:18:03;99720.22;;;23.48;97.23
11830;BME280;5972;42.134;24.718;2022-07-23T03:20:30;99724.41;;;23.56;94.79
11830;BME280;5972;42.134;24.718;2022-07-23T03:22:58;99722.25;;;23.63;95.26
11830;BME280;5972;42.134;24.718;2022-07-23T03:25:25;99726.81;;;23.54;95.87
11830;BME280;5972;42.134;24.718;2022-07-23T03:27:52;99725.56;;;23.35;97.82
11830;BME280;5972;42.134;24.718;2022-07-23T03:30:18;99732.28;;;23.14;100.00
11830;BME280;5972;42.134;24.718;2022-07-23T03:32:45;99736.47;;;23.42;98.57
11830;BME280;5972;42.134;24.718;2022-07-23T03:35:12;99730.19;;;23.61;96.61
11830;BME280;5972;42.134;24.718;2022-07-23T03:37:39;99731.31;;;23.84;92.86
11830;BME280;5972;42.134;24.718;2022-07-23T03:40:08;99726.84;;;23.70;94.79
11830;BME280;5972;42.134;24.718;2022-07-23T03:42:35;99739.19;;;23.66;96.42
11830;BME280;5972;42.134;24.718;2022-07-23T03:45:04;99737.03;;;23.93;95.38
11830;BME280;5972;42.134;24.718;2022-07-23T03:47:31;99741.56;;;23.83;94.80
11830;BME280;5972;42.134;24.718;2022-07-23T03:49:58;99737.41;;;24.11;91.38
11830;BME280;5972;42.134;24.718;2022-07-23T03:52:25;99735.75;;;24.14;92.18
11830;BME280;5972;42.134;24.718;2022-07-23T03:54:52;99734.38;;;24.06;93.19
11830;BME280;5972;42.134;24.718;2022-07-23T03:57:20;99732.00;;;24.40;90.73
11830;BME280;5972;42.134;24.718;2022-07-23T03:59:47;99730.69;;;24.61;84.95
11830;BME280;5972;42.134;24.718;2022-07-23T04:02:13;99726.19;;;24.83;82.76
11830;BME280;5972;42.134;24.718;2022-07-23T04:04:40;99717.47;;;25.13;79.05
11830;BME280;5972;42.134;24.718;2022-07-23T04:07:07;99735.28;;;25.41;76.43
11830;BME280;5972;42.134;24.718;2022-07-23T04:09:34;99735.75;;;25.40;74.70
11830;BME280;5972;42.134;24.718;2022-07-23T04:12:01;99725.28;;;25.31;75.32
11830;BME280;5972;42.134;24.718;2022-07-23T04:14:29;99727.56;;;25.20;76.30
11830;BME280;5972;42.134;24.718;2022-07-23T04:16:56;99730.75;;;25.76;73.80
11830;BME280;5972;42.134;24.718;2022-07-23T04:19:23;99734.78;;;26.13;69.40
11830;BME280;5972;42.134;24.718;2022-07-23T04:21:50;99734.19;;;26.69;65.58
11830;BME280;5972;42.134;24.718;2022-07-23T04:24:17;99744.88;;;27.92;57.94
11830;BME280;5972;42.134;24.718;2022-07-23T04:26:44;99741.09;;;28.47;53.43
11830;BME280;5972;42.134;24.718;2022-07-23T04:29:11;99734.97;;;29.07;49.57
11830;BME280;5972;42.134;24.718;2022-07-23T04:31:39;99745.03;;;29.50;48.93
11830;BME280;5972;42.134;24.718;2022-07-23T04:34:06;99740.91;;;29.88;47.19
11830;BME280;5972;42.134;24.718;2022-07-23T04:36:33;99747.16;;;30.81;45.16
11830;BME280;5972;42.134;24.718;2022-07-23T04:39:00;99734.56;;;31.39;42.38
11830;BME280;5972;42.134;24.718;2022-07-23T04:41:27;99727.09;;;30.83;43.26
11830;BME280;5972;42.134;24.718;2022-07-23T04:43:54;99737.88;;;31.67;41.39
11830;BME280;5972;42.134;24.718;2022-07-23T04:46:21;99741.47;;;31.67;40.84
11830;BME280;5972;42.134;24.718;2022-07-23T04:48:49;99741.56;;;31.73;40.66
11830;BME280;5972;42.134;24.718;2022-07-23T04:51:16;99740.94;;;31.01;42.04
11830;BME280;5972;42.134;24.718;2022-07-23T04:53:42;99748.09;;;31.41;42.01
11830;BME280;5972;42.134;24.718;2022-07-23T04:56:09;99749.31;;;31.01;42.63
11830;BME280;5972;42.134;24.718;2022-07-23T04:58:36;99746.72;;;32.24;40.70
11830;BME280;5972;42.134;24.718;2022-07-23T05:01:03;99717.81;;;31.83;40.57
11830;BME280;5972;42.134;24.718;2022-07-23T05:03:30;99752.28;;;31.21;42.24
11830;BME280;5972;42.134;24.718;2022-07-23T05:05:59;99741.34;;;31.91;41.37
11830;BME280;5972;42.134;24.718;2022-07-23T05:08:26;99740.31;;;33.39;38.35
11830;BME280;5972;42.134;24.718;2022-07-23T05:10:53;99740.41;;;34.08;36.71
11830;BME280;5972;42.134;24.718;2022-07-23T05:13:20;99749.00;;;35.32;34.39
11830;BME280;5972;42.134;24.718;2022-07-23T05:15:47;99743.44;;;36.27;32.96
11830;BME280;5972;42.134;24.718;2022-07-23T05:18:13;99740.84;;;37.14;31.63
11830;BME280;5972;42.134;24.718;2022-07-23T05:20:40;99740.72;;;37.72;30.65
11830;BME280;5972;42.134;24.718;2022-07-23T05:23:08;99734.09;;;36.71;31.88
11830;BME280;5972;42.134;24.718;2022-07-23T05:25:35;99745.47;;;38.18;30.02
11830;BME280;5972;42.134;24.718;2022-07-23T05:28:03;99741.50;;;38.56;29.21
11830;BME280;5972;42.134;24.718;2022-07-23T05:30:29;99748.78;;;38.22;28.94
11830;BME280;5972;42.134;24.718;2022-07-23T05:32:56;99737.66;;;38.00;29.33
11830;BME280;5972;42.134;24.718;2022-07-23T05:35:23;99734.88;;;38.24;28.71
11830;BME280;5972;42.134;24.718;2022-07-23T05:37:50;99736.66;;;37.97;28.96
11830;BME280;5972;42.134;24.718;2022-07-23T05:40:19;99738.84;;;38.83;28.56
11830;BME280;5972;42.134;24.718;2022-07-23T05:42:46;99739.84;;;38.85;28.26
11830;BME280;5972;42.134;24.718;2022-07-23T05:45:13;99704.91;;;38.83;27.84
11830;BME280;5972;42.134;24.718;2022-07-23T05:47:41;99728.34;;;37.45;29.51
11830;BME280;5972;42.134;24.718;2022-07-23T05:50:09;99738.28;;;38.90;28.03
11830;BME280;5972;42.134;24.718;2022-07-23T05:52:36;99745.31;;;39.90;27.12
11830;BME280;5972;42.134;24.718;2022-07-23T05:55:04;99731.53;;;40.39;26.30
11830;BME280;5972;42.134;24.718;2022-07-23T05:57:32;99734.16;;;39.79;26.70
11830;BME280;5972;42.134;24.718;2022-07-23T06:00:00;99747.47;;;40.55;25.44
11830;BME280;5972;42.134;24.718;2022-07-23T06:02:27;99734.19;;;40.18;26.18
11830;BME280;5972;42.134;24.718;2022-07-23T06:04:53;99746.28;;;39.93;26.43
11830;BME280;5972;42.134;24.718;2022-07-23T06:07:20;99741.56;;;40.27;25.83
11830;BME280;5972;42.134;24.718;2022-07-23T06:09:47;99739.28;;;41.25;24.96
11830;BME280;5972;42.134;24.718;2022-07-23T06:12:14;99734.34;;;39.30;27.38
11830;BME280;5972;42.134;24.718;2022-07-23T06:14:43;99737.59;;;39.40;26.89
11830;BME280;5972;42.134;24.718;2022-07-23T06:17:10;99741.63;;;39.76;26.88
11830;BME280;5972;42.134;24.718;2022-07-23T06:19:37;99734.66;;;39.27;27.10
11830;BME280;5972;42.134;24.718;2022-07-23T06:22:03;99727.63;;;36.87;29.45
11830;BME280;5972;42.134;24.718;2022-07-23T06:24:30;99738.56;;;35.60;31.31
11830;BME280;5972;42.134;24.718;2022-07-23T06:26:57;99741.13;;;35.75;30.93
11830;BME280;5972;42.134;24.718;2022-07-23T06:29:24;99740.63;;;35.88;30.80
11830;BME280;5972;42.134;24.718;2022-07-23T06:31:52;99738.81;;;36.29;30.25
11830;BME280;5972;42.134;24.718;2022-07-23T06:34:19;99739.31;;;36.39;29.92
11830;BME280;5972;42.134;24.718;2022-07-23T06:36:46;99736.75;;;36.35;30.12
11830;BME280;5972;42.134;24.718;2022-07-23T06:39:13;99737.75;;;36.43;30.82
11830;BME280;5972;42.134;24.718;2022-07-23T06:41:39;99733.66;;;36.44;30.45
11830;BME280;5972;42.134;24.718;2022-07-23T06:44:07;99737.28;;;35.83;31.06
11830;BME280;5972;42.134;24.718;2022-07-23T06:46:34;99729.09;;;35.74;31.51
11830;BME280;5972;42.134;24.718;2022-07-23T06:49:02;99729.09;;;35.85;31.82
11830;BME280;5972;42.134;24.718;2022-07-23T06:51:30;99719.06;;;35.34;32.21
11830;BME280;5972;42.134;24.718;2022-07-23T06:53:57;99718.06;;;35.49;31.99
11830;BME280;5972;42.134;24.718;2022-07-23T06:56:24;99715.75;;;35.30;32.08
11830;BME280;5972;42.134;24.718;2022-07-23T06:58:51;99708.59;;;35.63;31.30
11830;BME280;5972;42.134;24.718;2022-07-23T07:01:18;99712.94;;;35.53;30.79
11830;BME280;5972;42.134;24.718;2022-07-23T07:03:45;99713.47;;;35.57;31.25
11830;BME280;5972;42.134;24.718;2022-07-23T07:06:13;99707.56;;;35.21;31.24
11830;BME280;5972;42.134;24.718;2022-07-23T07:08:40;99701.88;;;35.10;32.18
11830;BME280;5972;42.134;24.718;2022-07-23T07:11:08;99679.09;;;35.08;31.89
11830;BME280;5972;42.134;24.718;2022-07-23T07:13:35;99710.69;;;34.70;32.89
11830;BME280;5972;42.134;24.718;2022-07-23T07:16:02;99699.63;;;35.20;31.78
11830;BME280;5972;42.134;24.718;2022-07-23T07:18:29;99694.53;;;35.46;31.05
11830;BME280;5972;42.134;24.718;2022-07-23T07:20:56;99700.41;;;35.37;31.48
11830;BME280;5972;42.134;24.718;2022-07-23T07:23:25;99702.47;;;35.59;31.51
11830;BME280;5972;42.134;24.718;2022-07-23T07:25:52;99696.88;;;35.75;31.42
11830;BME280;5972;42.134;24.718;2022-07-23T07:28:18;99697.94;;;34.74;31.96
11830;BME280;5972;42.134;24.718;2022-07-23T07:30:45;99696.41;;;34.84;32.21
11830;BME280;5972;42.134;24.718;2022-07-23T07:33:12;99701.19;;;34.67;32.28
11830;BME280;5972;42.134;24.718;2022-07-23T07:35:39;99692.75;;;34.67;33.01
11830;BME280;5972;42.134;24.718;2022-07-23T07:38:06;99696.03;;;35.19;32.13
11830;BME280;5972;42.134;24.718;2022-07-23T07:40:34;99675.59;;;35.47;31.21
11830;BME280;5972;42.134;24.718;2022-07-23T07:43:01;99673.31;;;35.67;31.38
11830;BME280;5972;42.134;24.718;2022-07-23T07:45:29;99678.63;;;34.50;32.94
11830;BME280;5972;42.134;24.718;2022-07-23T07:47:56;99682.47;;;34.53;32.72
11830;BME280;5972;42.134;24.718;2022-07-23T07:50:24;99680.09;;;34.94;31.96
11830;BME280;5972;42.134;24.718;2022-07-23T07:52:51;99673.44;;;34.91;31.81
11830;BME280;5972;42.134;24.718;2022-07-23T07:55:18;99679.09;;;35.02;32.57
11830;BME280;5972;42.134;24.718;2022-07-23T07:57:46;99668.94;;;35.27;30.91
11830;BME280;5972;42.134;24.718;2022-07-23T08:00:13;99673.03;;;35.43;30.78
11830;BME280;5972;42.134;24.718;2022-07-23T08:02:43;99669.97;;;35.30;30.70
11830;BME280;5972;42.134;24.718;2022-07-23T08:05:10;99674.31;;;35.48;31.52
11830;BME280;5972;42.134;24.718;2022-07-23T08:07:37;99673.81;;;35.55;31.38
11830;BME280;5972;42.134;24.718;2022-07-23T08:10:06;99659.75;;;35.55;29.72
11830;BME280;5972;42.134;24.718;2022-07-23T08:12:41;99664.84;;;35.56;30.88
11830;BME280;5972;42.134;24.718;2022-07-23T08:15:12;99655.13;;;35.46;29.92
11830;BME280;5972;42.134;24.718;2022-07-23T08:17:39;99647.44;;;35.47;31.34
11830;BME280;5972;42.134;24.718;2022-07-23T08:20:09;99654.34;;;35.45;30.05
11830;BME280;5972;42.134;24.718;2022-07-23T08:22:47;99654.59;;;35.25;34.43
11830;BME280;5972;42.134;24.718;2022-07-23T08:25:15;99649.50;;;35.29;32.22
11830;BME280;5972;42.134;24.718;2022-07-23T08:27:42;99636.66;;;35.12;31.43
11830;BME280;5972;42.134;24.718;2022-07-23T08:30:11;99632.88;;;35.20;29.89
11830;BME280;5972;42.134;24.718;2022-07-23T08:32:49;99628.53;;;35.19;29.22
11830;BME280;5972;42.134;24.718;2022-07-23T08:35:16;99629.78;;;35.24;33.70
11830;BME280;5972;42.134;24.718;2022-07-23T08:37:47;99638.75;;;35.28;32.70
11830;BME280;5972;42.134;24.718;2022-07-23T08:40:14;99625.72;;;35.47;30.95
11830;BME280;5972;42.134;24.718;2022-07-23T08:42:41;99601.41;;;35.61;35.09
